sensor_id;sensor_type;location;lat;lon;timestamp;P1;durP1;ratioP1;P2;durP2;ratioP2
26040;SDS011;13816;53.628;9.950;2023-03-14T00:01:47;12.53;;;3.60;;
26040;SDS011;13816;53.628;9.950;2023-03-14T00:04:23;8.10;;;3.00;;
26040;SDS011;13816;53.628;9.950;2023-03-14T00:06:53;9.40;;;3.63;;
26040;SDS011;13816;53.628;9.950;2023-03-14T00:09:23;7.93;;;3.30;;
26040;SDS011;13816;53.628;9.950;2023-03-14T00:11:55;18.20;;;3.70;;
26040;SDS011;13816;53.628;9.950;2023-03-14T00:14:25;9.33;;;3.50;;
26040;SDS011;13816;53.628;9.950;2023-03-14T00:19:21;5.50;;;3.13;;
26040;SDS011;13816;53.628;9.950;2023-03-14T00:21:48;11.60;;;3.17;;
26040;SDS011;13816;53.628;9.950;2023-03-14T00:24:22;10.60;;;3.53;;
26040;SDS011;13816;53.628;9.950;2023-03-14T00:26:49;9.87;;;3.40;;
26040;SDS011;13816;53.628;9.950;2023-03-14T00:29:34;10.87;;;3.67;;
26040;SDS011;13816;53.628;9.950;2023-03-14T00:32:03;5.57;;;2.80;;
26040;SDS011;13816;53.628;9.950;2023-03-14T00:34:34;7.10;;;3.63;;
26040;SDS011;13816;53.628;9.950;2023-03-14T00:37:00;9.10;;;3.73;;
26040;SDS011;13816;53.628;9.950;2023-03-14T00:39:34;13.20;;;3.30;;
26040;SDS011;13816;53.628;9.950;2023-03-14T00:42:03;10.93;;;2.97;;
26040;SDS011;13816;53.628;9.950;2023-03-14T00:44:58;12.73;;;3.60;;
26040;SDS011;13816;53.628;9.950;2023-03-14T00:47:25;9.13;;;3.00;;
26040;SDS011;13816;53.628;9.950;2023-03-14T00:49:52;14.00;;;4.13;;
26040;SDS011;13816;53.628;9.950;2023-03-14T00:52:20;8.50;;;3.83;;
26040;SDS011;13816;53.628;9.950;2023-03-14T01:01:30;12.13;;;4.37;;
26040;SDS011;13816;53.628;9.950;2023-03-14T01:11:36;23.20;;;4.33;;
26040;SDS011;13816;53.628;9.950;2023-03-14T01:18:15;9.50;;;3.10;;
26040;SDS011;13816;53.628;9.950;2023-03-14T01:25:24;17.87;;;3.17;;
26040;SDS011;13816;53.628;9.950;2023-03-14T01:29:12;8.03;;;3.10;;
26040;SDS011;13816;53.628;9.950;2023-03-14T01:39:14;11.40;;;3.53;;
26040;SDS011;13816;53.628;9.950;2023-03-14T01:52:54;10.30;;;3.77;;
26040;SDS011;13816;53.628;9.950;2023-03-14T02:10:25;7.50;;;3.10;;
26040;SDS011;13816;53.628;9.950;2023-03-14T02:16:54;10.03;;;3.37;;
26040;SDS011;13816;53.628;9.950;2023-03-14T02:41:10;11.13;;;4.00;;
26040;SDS011;13816;53.628;9.950;2023-03-14T03:05:59;9.43;;;4.87;;
26040;SDS011;13816;53.628;9.950;2023-03-14T03:09:10;7.80;;;3.83;;
26040;SDS011;13816;53.628;9.950;2023-03-14T03:40:20;9.40;;;4.00;;
26040;SDS011;13816;53.628;9.950;2023-03-14T03:43:41;13.40;;;4.83;;
26040;SDS011;13816;53.628;9.950;2023-03-14T03:47:22;7.30;;;3.20;;
26040;SDS011;13816;53.628;9.950;2023-03-14T03:54:04;10.43;;;4.37;;
26040;SDS011;13816;53.628;9.950;2023-03-14T03:57:11;11.03;;;3.77;;
26040;SDS011;13816;53.628;9.950;2023-03-14T03:59:50;5.67;;;3.70;;
26040;SDS011;13816;53.628;9.950;2023-03-14T04:13:05;8.17;;;3.20;;
26040;SDS011;13816;53.628;9.950;2023-03-14T04:16:53;12.63;;;3.63;;
26040;SDS011;13816;53.628;9.950;2023-03-14T04:37:37;11.67;;;4.43;;
26040;SDS011;13816;53.628;9.950;2023-03-14T04:40:43;10.13;;;3.83;;
26040;SDS011;13816;53.628;9.950;2023-03-14T04:47:11;11.40;;;3.83;;
26040;SDS011;13816;53.628;9.950;2023-03-14T05:08:14;3.13;;;1.27;;
26040;SDS011;13816;53.628;9.950;2023-03-14T05:28:08;4.70;;;1.90;;
26040;SDS011;13816;53.628;9.950;2023-03-14T05:35:06;5.77;;;2.00;;
26040;SDS011;13816;53.628;9.950;2023-03-14T05:52:42;7.83;;;4.30;;
26040;SDS011;13816;53.628;9.950;2023-03-14T05:56:13;12.23;;;3.83;;
26040;SDS011;13816;53.628;9.950;2023-03-14T06:20:41;12.03;;;5.33;;
26040;SDS011;13816;53.628;9.950;2023-03-14T06:41:25;18.23;;;7.50;;
26040;SDS011;13816;53.628;9.950;2023-03-14T06:48:23;14.83;;;6.10;;
26040;SDS011;13816;53.628;9.950;2023-03-14T06:51:33;11.37;;;6.90;;
26040;SDS011;13816;53.628;9.950;2023-03-14T06:54:01;12.10;;;6.33;;
26040;SDS011;13816;53.628;9.950;2023-03-14T06:56:28;13.60;;;6.83;;
26040;SDS011;13816;53.628;9.950;2023-03-14T06:58:56;15.83;;;7.27;;
26040;SDS011;13816;53.628;9.950;2023-03-14T07:01:25;16.83;;;6.73;;
26040;SDS011;13816;53.628;9.950;2023-03-14T07:03:55;9.17;;;5.87;;
26040;SDS011;13816;53.628;9.950;2023-03-14T07:06:21;13.33;;;6.23;;
26040;SDS011;13816;53.628;9.950;2023-03-14T07:08:48;8.23;;;5.00;;
26040;SDS011;13816;53.628;9.950;2023-03-14T07:11:15;11.90;;;5.63;;
26040;SDS011;13816;53.628;9.950;2023-03-14T07:13:42;9.13;;;4.80;;
26040;SDS011;13816;53.628;9.950;2023-03-14T07:16:09;9.80;;;4.03;;
26040;SDS011;13816;53.628;9.950;2023-03-14T07:18:36;7.30;;;4.07;;
26040;SDS011;13816;53.628;9.950;2023-03-14T07:21:05;7.43;;;3.40;;
26040;SDS011;13816;53.628;9.950;2023-03-14T07:23:32;12.83;;;3.47;;
26040;SDS011;13816;53.628;9.950;2023-03-14T07:25:59;7.37;;;3.13;;
26040;SDS011;13816;53.628;9.950;2023-03-14T07:28:26;6.50;;;3.33;;
26040;SDS011;13816;53.628;9.950;2023-03-14T07:31:00;10.30;;;2.77;;
26040;SDS011;13816;53.628;9.950;2023-03-14T07:33:30;6.67;;;3.43;;
26040;SDS011;13816;53.628;9.950;2023-03-14T07:35:56;7.20;;;3.03;;
26040;SDS011;13816;53.628;9.950;2023-03-14T07:38:22;10.80;;;3.17;;
26040;SDS011;13816;53.628;9.950;2023-03-14T07:41:09;7.50;;;2.90;;
26040;SDS011;13816;53.628;9.950;2023-03-14T07:43:40;11.57;;;2.77;;
26040;SDS011;13816;53.628;9.950;2023-03-14T07:46:07;5.50;;;2.50;;
26040;SDS011;13816;53.628;9.950;2023-03-14T07:48:33;8.53;;;2.90;;
26040;SDS011;13816;53.628;9.950;2023-03-14T07:50:59;9.03;;;3.20;;
26040;SDS011;13816;53.628;9.950;2023-03-14T07:53:25;9.10;;;2.93;;
26040;SDS011;13816;53.628;9.950;2023-03-14T07:55:52;6.10;;;3.17;;
26040;SDS011;13816;53.628;9.950;2023-03-14T07:58:18;9.47;;;3.00;;
26040;SDS011;13816;53.628;9.950;2023-03-14T08:00:46;6.93;;;3.17;;
26040;SDS011;13816;53.628;9.950;2023-03-14T08:03:12;12.50;;;3.53;;
26040;SDS011;13816;53.628;9.950;2023-03-14T08:05:39;12.43;;;3.00;;
26040;SDS011;13816;53.628;9.950;2023-03-14T08:08:06;6.63;;;2.90;;
26040;SDS011;13816;53.628;9.950;2023-03-14T08:10:32;5.93;;;2.50;;
26040;SDS011;13816;53.628;9.950;2023-03-14T08:12:59;9.20;;;3.23;;
26040;SDS011;13816;53.628;9.950;2023-03-14T08:15:26;9.40;;;2.63;;
26040;SDS011;13816;53.628;9.950;2023-03-14T08:17:52;9.70;;;2.33;;
26040;SDS011;13816;53.628;9.950;2023-03-14T08:20:22;6.00;;;2.17;;
26040;SDS011;13816;53.628;9.950;2023-03-14T08:22:48;6.37;;;2.10;;
26040;SDS011;13816;53.628;9.950;2023-03-14T08:25:14;5.77;;;1.77;;
26040;SDS011;13816;53.628;9.950;2023-03-14T08:27:41;8.67;;;2.63;;
26040;SDS011;13816;53.628;9.950;2023-03-14T08:30:08;4.50;;;2.00;;
26040;SDS011;13816;53.628;9.950;2023-03-14T08:32:35;4.40;;;1.73;;
26040;SDS011;13816;53.628;9.950;2023-03-14T08:35:01;8.10;;;2.13;;
26040;SDS011;13816;53.628;9.950;2023-03-14T08:37:27;7.70;;;2.43;;
26040;SDS011;13816;53.628;9.950;2023-03-14T08:39:53;11.33;;;2.70;;
26040;SDS011;13816;53.628;9.950;2023-03-14T08:42:19;5.10;;;2.43;;
26040;SDS011;13816;53.628;9.950;2023-03-14T08:44:45;4.97;;;2.77;;
26040;SDS011;13816;53.628;9.950;2023-03-14T08:47:11;9.47;;;2.33;;
26040;SDS011;13816;53.628;9.950;2023-03-14T08:49:38;5.40;;;2.53;;
26040;SDS011;13816;53.628;9.950;2023-03-14T08:52:04;9.60;;;2.60;;
26040;SDS011;13816;53.628;9.950;2023-03-14T08:54:30;8.60;;;2.33;;
26040;SDS011;13816;53.628;9.950;2023-03-14T08:56:57;7.93;;;2.80;;
26040;SDS011;13816;53.628;9.950;2023-03-14T08:59:23;10.43;;;2.80;;
26040;SDS011;13816;53.628;9.950;2023-03-14T09:01:49;6.23;;;3.00;;
26040;SDS011;13816;53.628;9.950;2023-03-14T09:04:15;10.10;;;3.73;;
26040;SDS011;13816;53.628;9.950;2023-03-14T09:06:42;4.90;;;2.60;;
26040;SDS011;13816;53.628;9.950;2023-03-14T09:09:08;7.23;;;2.70;;
26040;SDS011;13816;53.628;9.950;2023-03-14T09:11:34;7.20;;;3.10;;
26040;SDS011;13816;53.628;9.950;2023-03-14T09:14:01;18.30;;;3.17;;
26040;SDS011;13816;53.628;9.950;2023-03-14T09:16:27;22.13;;;3.97;;
26040;SDS011;13816;53.628;9.950;2023-03-14T09:18:53;11.07;;;3.90;;
26040;SDS011;13816;53.628;9.950;2023-03-14T09:21:20;9.30;;;3.00;;
26040;SDS011;13816;53.628;9.950;2023-03-14T09:23:46;9.60;;;3.53;;
26040;SDS011;13816;53.628;9.950;2023-03-14T09:26:12;10.80;;;3.80;;
26040;SDS011;13816;53.628;9.950;2023-03-14T09:28:39;9.87;;;4.10;;
26040;SDS011;13816;53.628;9.950;2023-03-14T09:31:08;8.80;;;4.40;;
26040;SDS011;13816;53.628;9.950;2023-03-14T09:33:35;8.00;;;4.00;;
26040;SDS011;13816;53.628;9.950;2023-03-14T09:36:01;7.63;;;4.30;;
26040;SDS011;13816;53.628;9.950;2023-03-14T09:38:27;9.37;;;4.23;;
26040;SDS011;13816;53.628;9.950;2023-03-14T09:40:54;12.50;;;4.10;;
26040;SDS011;13816;53.628;9.950;2023-03-14T09:43:21;10.77;;;4.37;;
26040;SDS011;13816;53.628;9.950;2023-03-14T09:45:48;9.17;;;3.73;;
26040;SDS011;13816;53.628;9.950;2023-03-14T09:48:16;11.60;;;4.10;;
26040;SDS011;13816;53.628;9.950;2023-03-14T09:50:43;6.97;;;2.20;;
26040;SDS011;13816;53.628;9.950;2023-03-14T09:53:17;2.67;;;1.60;;
26040;SDS011;13816;53.628;9.950;2023-03-14T09:55:45;3.67;;;1.07;;
26040;SDS011;13816;53.628;9.950;2023-03-14T09:58:12;1.50;;;1.10;;
26040;SDS011;13816;53.628;9.950;2023-03-14T10:00:39;2.23;;;1.03;;
26040;SDS011;13816;53.628;9.950;2023-03-14T10:05:38;3.30;;;1.10;;
26040;SDS011;13816;53.628;9.950;2023-03-14T10:08:04;2.10;;;1.13;;
26040;SDS011;13816;53.628;9.950;2023-03-14T10:10:30;1.90;;;1.30;;
26040;SDS011;13816;53.628;9.950;2023-03-14T10:13:05;5.10;;;1.60;;
26040;SDS011;13816;53.628;9.950;2023-03-14T10:15:37;1.40;;;1.00;;
26040;SDS011;13816;53.628;9.950;2023-03-14T10:18:03;5.10;;;1.10;;
26040;SDS011;13816;53.628;9.950;2023-03-14T10:20:35;1.77;;;0.83;;
26040;SDS011;13816;53.628;9.950;2023-03-14T10:23:44;3.07;;;1.00;;
26040;SDS011;13816;53.628;9.950;2023-03-14T10:26:05;2.13;;;0.90;;
26040;SDS011;13816;53.628;9.950;2023-03-14T10:28:33;1.60;;;0.93;;
26040;SDS011;13816;53.628;9.950;2023-03-14T10:31:00;4.17;;;1.33;;
26040;SDS011;13816;53.628;9.950;2023-03-14T10:33:28;0.70;;;0.60;;
26040;SDS011;13816;53.628;9.950;2023-03-14T10:36:02;1.37;;;0.80;;
26040;SDS011;13816;53.628;9.950;2023-03-14T10:38:30;3.00;;;1.03;;
26040;SDS011;13816;53.628;9.950;2023-03-14T10:40:56;1.23;;;0.60;;
26040;SDS011;13816;53.628;9.950;2023-03-14T10:43:24;1.07;;;0.80;;
26040;SDS011;13816;53.628;9.950;2023-03-14T10:45:59;0.70;;;0.70;;
26040;SDS011;13816;53.628;9.950;2023-03-14T10:53:26;2.13;;;0.73;;
26040;SDS011;13816;53.628;9.950;2023-03-14T10:55:52;1.00;;;0.50;;
26040;SDS011;13816;53.628;9.950;2023-03-14T10:58:19;1.67;;;0.90;;
26040;SDS011;13816;53.628;9.950;2023-03-14T11:00:54;0.80;;;0.63;;
26040;SDS011;13816;53.628;9.950;2023-03-14T11:03:23;2.97;;;0.90;;
26040;SDS011;13816;53.628;9.950;2023-03-14T11:05:56;1.77;;;0.70;;
26040;SDS011;13816;53.628;9.950;2023-03-14T11:08:24;2.50;;;0.90;;
26040;SDS011;13816;53.628;9.950;2023-03-14T11:10:53;2.63;;;1.10;;
26040;SDS011;13816;53.628;9.950;2023-03-14T11:13:34;0.90;;;0.80;;
26040;SDS011;13816;53.628;9.950;2023-03-14T11:16:13;1.83;;;0.83;;
26040;SDS011;13816;53.628;9.950;2023-03-14T11:21:13;4.00;;;1.03;;
26040;SDS011;13816;53.628;9.950;2023-03-14T11:23:50;3.07;;;1.00;;
26040;SDS011;13816;53.628;9.950;2023-03-14T11:31:46;2.90;;;1.20;;
26040;SDS011;13816;53.628;9.950;2023-03-14T11:34:16;1.80;;;0.90;;
26040;SDS011;13816;53.628;9.950;2023-03-14T11:36:51;2.77;;;1.07;;
26040;SDS011;13816;53.628;9.950;2023-03-14T11:39:19;4.20;;;1.20;;
26040;SDS011;13816;53.628;9.950;2023-03-14T11:41:47;2.70;;;1.47;;
26040;SDS011;13816;53.628;9.950;2023-03-14T11:44:22;5.50;;;2.20;;
26040;SDS011;13816;53.628;9.950;2023-03-14T11:46:54;3.47;;;1.20;;
26040;SDS011;13816;53.628;9.950;2023-03-14T11:52:49;9.03;;;1.77;;
26040;SDS011;13816;53.628;9.950;2023-03-14T11:55:02;5.50;;;1.33;;
26040;SDS011;13816;53.628;9.950;2023-03-14T11:57:30;4.43;;;1.33;;
26040;SDS011;13816;53.628;9.950;2023-03-14T12:00:01;8.93;;;1.40;;
26040;SDS011;13816;53.628;9.950;2023-03-14T12:05:31;3.90;;;1.20;;
26040;SDS011;13816;53.628;9.950;2023-03-14T12:10:26;9.90;;;1.93;;
26040;SDS011;13816;53.628;9.950;2023-03-14T12:12:53;8.70;;;1.70;;
26040;SDS011;13816;53.628;9.950;2023-03-14T12:15:20;7.30;;;1.63;;
26040;SDS011;13816;53.628;9.950;2023-03-14T12:17:46;4.80;;;1.60;;
26040;SDS011;13816;53.628;9.950;2023-03-14T12:20:19;6.90;;;1.80;;
26040;SDS011;13816;53.628;9.950;2023-03-14T12:22:56;10.43;;;1.97;;
26040;SDS011;13816;53.628;9.950;2023-03-14T12:25:27;7.90;;;2.13;;
26040;SDS011;13816;53.628;9.950;2023-03-14T12:30:34;9.23;;;2.50;;
26040;SDS011;13816;53.628;9.950;2023-03-14T12:35:39;7.13;;;1.90;;
26040;SDS011;13816;53.628;9.950;2023-03-14T12:38:09;13.90;;;1.60;;
26040;SDS011;13816;53.628;9.950;2023-03-14T12:40:39;13.13;;;2.90;;
26040;SDS011;13816;53.628;9.950;2023-03-14T12:48:33;11.23;;;2.10;;
26040;SDS011;13816;53.628;9.950;2023-03-14T12:51:02;7.20;;;2.10;;
26040;SDS011;13816;53.628;9.950;2023-03-14T13:01:21;12.23;;;3.73;;
26040;SDS011;13816;53.628;9.950;2023-03-14T13:03:50;12.60;;;2.43;;
26040;SDS011;13816;53.628;9.950;2023-03-14T13:11:49;13.30;;;3.67;;
26040;SDS011;13816;53.628;9.950;2023-03-14T13:14:15;12.80;;;3.00;;
26040;SDS011;13816;53.628;9.950;2023-03-14T13:16:42;16.90;;;3.03;;
26040;SDS011;13816;53.628;9.950;2023-03-14T13:19:14;17.23;;;3.50;;
26040;SDS011;13816;53.628;9.950;2023-03-14T13:21:43;11.77;;;2.37;;
26040;SDS011;13816;53.628;9.950;2023-03-14T13:24:22;21.10;;;3.90;;
26040;SDS011;13816;53.628;9.950;2023-03-14T13:26:49;11.73;;;2.87;;
26040;SDS011;13816;53.628;9.950;2023-03-14T13:29:28;11.83;;;3.30;;
26040;SDS011;13816;53.628;9.950;2023-03-14T13:31:57;13.73;;;3.03;;
26040;SDS011;13816;53.628;9.950;2023-03-14T13:34:28;10.63;;;2.10;;
26040;SDS011;13816;53.628;9.950;2023-03-14T13:36:54;5.83;;;1.70;;
26040;SDS011;13816;53.628;9.950;2023-03-14T13:39:21;12.93;;;1.67;;
26040;SDS011;13816;53.628;9.950;2023-03-14T13:41:50;5.60;;;1.20;;
26040;SDS011;13816;53.628;9.950;2023-03-14T13:44:17;7.20;;;2.20;;
26040;SDS011;13816;53.628;9.950;2023-03-14T13:46:44;9.30;;;1.80;;
26040;SDS011;13816;53.628;9.950;2023-03-14T13:49:22;8.67;;;1.70;;
26040;SDS011;13816;53.628;9.950;2023-03-14T13:51:48;8.50;;;2.20;;
26040;SDS011;13816;53.628;9.950;2023-03-14T13:54:15;6.83;;;2.30;;
26040;SDS011;13816;53.628;9.950;2023-03-14T13:56:42;9.03;;;2.43;;
26040;SDS011;13816;53.628;9.950;2023-03-14T13:59:27;15.90;;;2.30;;
26040;SDS011;13816;53.628;9.950;2023-03-14T14:01:53;8.70;;;2.60;;
26040;SDS011;13816;53.628;9.950;2023-03-14T14:04:21;14.47;;;2.57;;
26040;SDS011;13816;53.628;9.950;2023-03-14T14:06:49;19.80;;;3.37;;
26040;SDS011;13816;53.628;9.950;2023-03-14T14:09:17;10.40;;;2.27;;
26040;SDS011;13816;53.628;9.950;2023-03-14T14:14:13;22.97;;;2.67;;
26040;SDS011;13816;53.628;9.950;2023-03-14T14:16:41;9.00;;;1.90;;
26040;SDS011;13816;53.628;9.950;2023-03-14T14:19:09;7.10;;;2.30;;
26040;SDS011;13816;53.628;9.950;2023-03-14T14:21:35;8.60;;;2.47;;
26040;SDS011;13816;53.628;9.950;2023-03-14T14:24:01;19.17;;;2.50;;
26040;SDS011;13816;53.628;9.950;2023-03-14T14:26:27;12.90;;;2.90;;
26040;SDS011;13816;53.628;9.950;2023-03-14T14:29:04;6.70;;;2.40;;
26040;SDS011;13816;53.628;9.950;2023-03-14T14:31:30;15.43;;;2.07;;
26040;SDS011;13816;53.628;9.950;2023-03-14T14:36:41;10.47;;;2.50;;
26040;SDS011;13816;53.628;9.950;2023-03-14T14:39:11;11.27;;;1.97;;
26040;SDS011;13816;53.628;9.950;2023-03-14T14:41:39;9.73;;;2.23;;
26040;SDS011;13816;53.628;9.950;2023-03-14T14:44:06;7.80;;;1.70;;
26040;SDS011;13816;53.628;9.950;2023-03-14T14:46:34;8.83;;;2.00;;
26040;SDS011;13816;53.628;9.950;2023-03-14T14:49:06;6.83;;;2.10;;
26040;SDS011;13816;53.628;9.950;2023-03-14T14:51:39;9.93;;;2.20;;
26040;SDS011;13816;53.628;9.950;2023-03-14T14:54:10;6.67;;;1.87;;
26040;SDS011;13816;53.628;9.950;2023-03-14T14:56:37;9.93;;;1.70;;
26040;SDS011;13816;53.628;9.950;2023-03-14T14:59:04;7.27;;;2.27;;
26040;SDS011;13816;53.628;9.950;2023-03-14T15:01:33;6.73;;;1.60;;
26040;SDS011;13816;53.628;9.950;2023-03-14T15:03:59;10.23;;;2.43;;
26040;SDS011;13816;53.628;9.950;2023-03-14T15:06:28;11.27;;;2.20;;
26040;SDS011;13816;53.628;9.950;2023-03-14T15:08:54;6.77;;;1.73;;
26040;SDS011;13816;53.628;9.950;2023-03-14T15:11:22;7.40;;;1.57;;
26040;SDS011;13816;53.628;9.950;2023-03-14T15:13:48;9.10;;;2.50;;
26040;SDS011;13816;53.628;9.950;2023-03-14T15:16:17;14.87;;;2.07;;
26040;SDS011;13816;53.628;9.950;2023-03-14T15:18:44;11.73;;;2.47;;
26040;SDS011;13816;53.628;9.950;2023-03-14T15:21:12;10.43;;;2.40;;
26040;SDS011;13816;53.628;9.950;2023-03-14T15:23:38;10.80;;;2.80;;
26040;SDS011;13816;53.628;9.950;2023-03-14T15:26:13;9.30;;;2.50;;
26040;SDS011;13816;53.628;9.950;2023-03-14T15:28:40;8.10;;;2.00;;
26040;SDS011;13816;53.628;9.950;2023-03-14T15:31:10;10.20;;;2.53;;
26040;SDS011;13816;53.628;9.950;2023-03-14T15:33:37;14.13;;;1.83;;
26040;SDS011;13816;53.628;9.950;2023-03-14T15:36:03;13.30;;;2.80;;
26040;SDS011;13816;53.628;9.950;2023-03-14T15:38:30;14.60;;;2.20;;
26040;SDS011;13816;53.628;9.950;2023-03-14T15:40:56;13.60;;;2.37;;
26040;SDS011;13816;53.628;9.950;2023-03-14T15:43:22;9.67;;;2.83;;
26040;SDS011;13816;53.628;9.950;2023-03-14T15:45:48;10.73;;;2.10;;
26040;SDS011;13816;53.628;9.950;2023-03-14T15:48:16;16.77;;;2.70;;
26040;SDS011;13816;53.628;9.950;2023-03-14T15:50:43;23.43;;;3.43;;
26040;SDS011;13816;53.628;9.950;2023-03-14T15:53:09;14.63;;;2.47;;
26040;SDS011;13816;53.628;9.950;2023-03-14T15:55:36;5.97;;;2.03;;
26040;SDS011;13816;53.628;9.950;2023-03-14T15:58:02;9.57;;;2.53;;
26040;SDS011;13816;53.628;9.950;2023-03-14T16:00:28;11.23;;;2.70;;
26040;SDS011;13816;53.628;9.950;2023-03-14T16:02:55;9.37;;;1.97;;
26040;SDS011;13816;53.628;9.950;2023-03-14T16:05:21;11.97;;;2.70;;
26040;SDS011;13816;53.628;9.950;2023-03-14T16:07:47;12.00;;;2.17;;
26040;SDS011;13816;53.628;9.950;2023-03-14T16:10:15;16.87;;;3.30;;
26040;SDS011;13816;53.628;9.950;2023-03-14T16:12:41;4.67;;;1.90;;
26040;SDS011;13816;53.628;9.950;2023-03-14T16:15:08;8.07;;;2.10;;
26040;SDS011;13816;53.628;9.950;2023-03-14T16:17:34;15.30;;;2.27;;
26040;SDS011;13816;53.628;9.950;2023-03-14T16:20:02;14.70;;;2.90;;
26040;SDS011;13816;53.628;9.950;2023-03-14T16:22:29;6.50;;;1.70;;
26040;SDS011;13816;53.628;9.950;2023-03-14T16:25:00;12.73;;;2.70;;
26040;SDS011;13816;53.628;9.950;2023-03-14T16:27:26;7.20;;;2.17;;
26040;SDS011;13816;53.628;9.950;2023-03-14T16:29:52;18.93;;;2.87;;
26040;SDS011;13816;53.628;9.950;2023-03-14T16:32:18;7.40;;;2.50;;
26040;SDS011;13816;53.628;9.950;2023-03-14T16:34:44;21.50;;;3.20;;
26040;SDS011;13816;53.628;9.950;2023-03-14T16:37:10;9.00;;;3.03;;
26040;SDS011;13816;53.628;9.950;2023-03-14T16:39:37;11.70;;;2.37;;
26040;SDS011;13816;53.628;9.950;2023-03-14T16:42:03;11.37;;;2.30;;
26040;SDS011;13816;53.628;9.950;2023-03-14T16:44:29;25.33;;;3.07;;
26040;SDS011;13816;53.628;9.950;2023-03-14T16:46:56;12.07;;;2.73;;
26040;SDS011;13816;53.628;9.950;2023-03-14T16:49:22;7.77;;;2.20;;
26040;SDS011;13816;53.628;9.950;2023-03-14T16:51:48;23.37;;;3.50;;
26040;SDS011;13816;53.628;9.950;2023-03-14T16:54:14;25.57;;;2.73;;
26040;SDS011;13816;53.628;9.950;2023-03-14T16:56:40;7.63;;;1.73;;
26040;SDS011;13816;53.628;9.950;2023-03-14T16:59:06;12.27;;;2.10;;
26040;SDS011;13816;53.628;9.950;2023-03-14T17:01:32;8.00;;;1.77;;
26040;SDS011;13816;53.628;9.950;2023-03-14T17:03:59;11.63;;;2.87;;
26040;SDS011;13816;53.628;9.950;2023-03-14T17:06:26;10.43;;;2.83;;
26040;SDS011;13816;53.628;9.950;2023-03-14T17:08:53;7.63;;;2.40;;
26040;SDS011;13816;53.628;9.950;2023-03-14T17:11:19;22.30;;;2.60;;
26040;SDS011;13816;53.628;9.950;2023-03-14T17:13:46;12.53;;;3.20;;
26040;SDS011;13816;53.628;9.950;2023-03-14T17:16:12;14.30;;;2.40;;
26040;SDS011;13816;53.628;9.950;2023-03-14T17:18:38;7.20;;;2.37;;
26040;SDS011;13816;53.628;9.950;2023-03-14T17:21:04;11.23;;;2.70;;
26040;SDS011;13816;53.628;9.950;2023-03-14T17:23:31;13.87;;;2.57;;
26040;SDS011;13816;53.628;9.950;2023-03-14T17:25:57;15.87;;;2.80;;
26040;SDS011;13816;53.628;9.950;2023-03-14T17:28:24;5.53;;;2.03;;
26040;SDS011;13816;53.628;9.950;2023-03-14T17:31:00;15.43;;;3.07;;
26040;SDS011;13816;53.628;9.950;2023-03-14T17:33:27;12.43;;;2.77;;
26040;SDS011;13816;53.628;9.950;2023-03-14T17:35:52;5.93;;;2.00;;
26040;SDS011;13816;53.628;9.950;2023-03-14T17:38:18;17.77;;;2.97;;
26040;SDS011;13816;53.628;9.950;2023-03-14T17:40:47;8.87;;;2.10;;
26040;SDS011;13816;53.628;9.950;2023-03-14T17:43:14;16.03;;;2.50;;
26040;SDS011;13816;53.628;9.950;2023-03-14T17:45:41;11.80;;;2.97;;
26040;SDS011;13816;53.628;9.950;2023-03-14T17:48:10;13.57;;;2.30;;
26040;SDS011;13816;53.628;9.950;2023-03-14T17:50:37;11.93;;;2.43;;
26040;SDS011;13816;53.628;9.950;2023-03-14T17:53:03;9.50;;;2.77;;
26040;SDS011;13816;53.628;9.950;2023-03-14T17:55:29;13.93;;;3.20;;
26040;SDS011;13816;53.628;9.950;2023-03-14T17:57:55;13.40;;;2.43;;
26040;SDS011;13816;53.628;9.950;2023-03-14T18:00:21;15.40;;;2.67;;
26040;SDS011;13816;53.628;9.950;2023-03-14T18:02:48;16.20;;;2.80;;
26040;SDS011;13816;53.628;9.950;2023-03-14T18:05:15;14.20;;;2.80;;
26040;SDS011;13816;53.628;9.950;2023-03-14T18:07:42;16.03;;;2.87;;
26040;SDS011;13816;53.628;9.950;2023-03-14T18:10:09;13.30;;;2.43;;
26040;SDS011;13816;53.628;9.950;2023-03-14T18:12:36;20.00;;;3.50;;
26040;SDS011;13816;53.628;9.950;2023-03-14T18:15:02;6.23;;;2.47;;
26040;SDS011;13816;53.628;9.950;2023-03-14T18:17:29;10.63;;;2.20;;
26040;SDS011;13816;53.628;9.950;2023-03-14T18:19:55;9.93;;;2.63;;
26040;SDS011;13816;53.628;9.950;2023-03-14T18:22:22;16.10;;;2.77;;
26040;SDS011;13816;53.628;9.950;2023-03-14T18:24:48;14.17;;;3.07;;
26040;SDS011;13816;53.628;9.950;2023-03-14T18:27:14;23.77;;;5.10;;
26040;SDS011;13816;53.628;9.950;2023-03-14T18:29:41;16.40;;;5.80;;
26040;SDS011;13816;53.628;9.950;2023-03-14T18:32:07;13.83;;;2.47;;
26040;SDS011;13816;53.628;9.950;2023-03-14T18:34:33;10.23;;;2.90;;
26040;SDS011;13816;53.628;9.950;2023-03-14T18:37:00;8.67;;;2.63;;
26040;SDS011;13816;53.628;9.950;2023-03-14T18:39:26;15.13;;;3.10;;
26040;SDS011;13816;53.628;9.950;2023-03-14T18:41:52;19.23;;;2.57;;
26040;SDS011;13816;53.628;9.950;2023-03-14T18:44:18;8.67;;;1.60;;
26040;SDS011;13816;53.628;9.950;2023-03-14T18:46:45;9.73;;;2.60;;
26040;SDS011;13816;53.628;9.950;2023-03-14T18:49:12;15.27;;;3.07;;
26040;SDS011;13816;53.628;9.950;2023-03-14T18:54:21;13.20;;;2.43;;
26040;SDS011;13816;53.628;9.950;2023-03-14T18:57:05;16.17;;;3.20;;
26040;SDS011;13816;53.628;9.950;2023-03-14T19:00:01;10.43;;;2.53;;
26040;SDS011;13816;53.628;9.950;2023-03-14T19:02:54;8.20;;;2.70;;
26040;SDS011;13816;53.628;9.950;2023-03-14T19:05:29;16.03;;;2.30;;
26040;SDS011;13816;53.628;9.950;2023-03-14T19:08:00;7.10;;;2.80;;
26040;SDS011;13816;53.628;9.950;2023-03-14T19:10:32;13.80;;;2.63;;
26040;SDS011;13816;53.628;9.950;2023-03-14T19:13:17;9.10;;;2.30;;
26040;SDS011;13816;53.628;9.950;2023-03-14T19:15:56;12.80;;;2.87;;
26040;SDS011;13816;53.628;9.950;2023-03-14T19:18:25;8.03;;;2.20;;
26040;SDS011;13816;53.628;9.950;2023-03-14T19:28:04;6.70;;;2.20;;
26040;SDS011;13816;53.628;9.950;2023-03-14T19:30:35;15.93;;;2.90;;
26040;SDS011;13816;53.628;9.950;2023-03-14T19:43:33;7.47;;;2.17;;
26040;SDS011;13816;53.628;9.950;2023-03-14T19:50:26;16.83;;;3.37;;
26040;SDS011;13816;53.628;9.950;2023-03-14T19:52:58;12.73;;;3.13;;
26040;SDS011;13816;53.628;9.950;2023-03-14T19:55:28;11.70;;;2.30;;
26040;SDS011;13816;53.628;9.950;2023-03-14T20:02:50;14.37;;;2.90;;
26040;SDS011;13816;53.628;9.950;2023-03-14T20:05:18;12.23;;;2.33;;
26040;SDS011;13816;53.628;9.950;2023-03-14T20:11:14;9.30;;;2.60;;
26040;SDS011;13816;53.628;9.950;2023-03-14T20:17:53;10.70;;;1.93;;
26040;SDS011;13816;53.628;9.950;2023-03-14T20:20:22;5.87;;;1.93;;
26040;SDS011;13816;53.628;9.950;2023-03-14T20:22:49;9.10;;;2.43;;
26040;SDS011;13816;53.628;9.950;2023-03-14T20:25:16;6.87;;;1.80;;
26040;SDS011;13816;53.628;9.950;2023-03-14T20:27:44;13.03;;;2.47;;
26040;SDS011;13816;53.628;9.950;2023-03-14T20:40:59;10.03;;;1.80;;
26040;SDS011;13816;53.628;9.950;2023-03-14T20:43:35;8.07;;;2.20;;
26040;SDS011;13816;53.628;9.950;2023-03-14T21:28:26;9.43;;;2.33;;
26040;SDS011;13816;53.628;9.950;2023-03-14T21:31:55;7.70;;;1.70;;
26040;SDS011;13816;53.628;9.950;2023-03-14T21:34:33;3.27;;;1.30;;
26040;SDS011;13816;53.628;9.950;2023-03-14T21:37:02;6.47;;;1.47;;
26040;SDS011;13816;53.628;9.950;2023-03-14T21:39:32;4.37;;;2.00;;
26040;SDS011;13816;53.628;9.950;2023-03-14T21:42:06;6.13;;;1.90;;
26040;SDS011;13816;53.628;9.950;2023-03-14T21:44:43;15.93;;;2.50;;
26040;SDS011;13816;53.628;9.950;2023-03-14T21:47:35;6.50;;;1.57;;
26040;SDS011;13816;53.628;9.950;2023-03-14T22:01:04;7.60;;;2.30;;
26040;SDS011;13816;53.628;9.950;2023-03-14T22:03:34;5.27;;;1.60;;
26040;SDS011;13816;53.628;9.950;2023-03-14T22:13:26;9.37;;;2.47;;
26040;SDS011;13816;53.628;9.950;2023-03-14T22:23:19;7.93;;;2.30;;